Salt Lake City, Utah
Current Conditions -  °F | °C
As of 8:53 PM on Tuesday 21 Oct 2014 (Local Time) from KSLC Reporting Station
Broken Clouds Broken Clouds  
Wind Chill: 52°   Ceiling: 20000
Heat Index: 52°   Visibility: 10mi
Dew Point: 33°   Wind: 3mph
Humidity: 49%   Direction: 330°NNW
Pressure: 30.05"   Gusts: NA
Location:  40.76°N, 111.88°W
Report Text: KSLC 220253Z 33003KT 10SM FEW080 SCT130 BKN200 11/01 A3005 RMK AO2 SLP145 T01110006 53009
Loading
Personal Weather Stations






























Interactive Weather Map
Tropical Storm Tracking
New forecast layout! Learn more

10-Day Weather Forecast

Advertisements
Track Severe Weather on mobile